Time;durP1;ratioP1;P1;durP2;ratioP2;P2;SDS_P1;SDS_P2;PMS_P1;PMS_P2;Temp;Humidity;BMP_temperature;BMP_pressure;BME280_temperature;BME280_humidity;BME280_pressure;Samples;Min_cycle;Max_cycle;Signal;HPM_P1;HPM_P2
2022/11/19 00:01:22;;;;;;;;;;;-1.20;92.50;;;;;;5015298;28;1383;-70
2022/11/19 00:03:50;;;;;;;;;;;-1.20;92.50;;;;;;5017680;28;875;-69
2022/11/19 00:06:22;;;;;;;;;;;-1.20;92.50;;;;;;5013720;28;1007;-69
2022/11/19 00:08:50;;;;;;;;;;;-1.30;92.50;;;;;;5013535;28;1099;-68
2022/11/19 00:12:53;;;;;;;;;;;-1.30;92.60;;;;;;5012635;28;1969;-69
2022/11/19 00:14:06;;;;;;;;;;;-1.30;92.40;;;;;;5013364;28;1188;-67
2022/11/19 00:16:34;;;;;;;;;;;-1.30;92.60;;;;;;5013635;28;966;-66
2022/11/19 00:19:02;;;;;;;;;;;-1.30;92.60;;;;;;5011850;28;1616;-66
2022/11/19 00:21:31;;;;;;;;;;;-1.30;92.50;;;;;;5013730;28;1351;-69
2022/11/19 00:23:59;;;;;;;;;;;-1.30;92.50;;;;;;5013223;28;1128;-67
2022/11/19 00:26:26;;;;;;;;;;;-1.40;92.60;;;;;;5011991;28;1092;-67
2022/11/19 00:28:54;;;;;;;;;;;-1.40;92.60;;;;;;5013716;28;1040;-68
2022/11/19 00:31:22;;;;;;;;;;;-1.40;92.70;;;;;;5013179;28;1898;-67
2022/11/19 00:33:49;;;;;;;;;;;-1.30;92.70;;;;;;5013007;28;1297;-70
2022/11/19 00:36:17;;;;;;;;;;;-1.40;92.70;;;;;;5013184;28;1006;-69
2022/11/19 00:38:46;;;;;;;;;;;-1.40;92.90;;;;;;5013047;28;1009;-69
2022/11/19 00:41:14;;;;;;;;;;;-1.40;93.00;;;;;;5013469;28;1061;-69
2022/11/19 00:43:48;;;;;;;;;;;-1.80;92.70;;;;;;5012793;28;1093;-68
2022/11/19 00:46:17;;;;;;;;;;;-1.50;92.90;;;;;;5011432;28;1449;-69
2022/11/19 00:48:44;;;;;;;;;;;-1.50;93.20;;;;;;5011633;28;1098;-67
2022/11/19 00:51:13;;;;;;;;;;;-1.50;93.00;;;;;;5013288;28;1993;-67
2022/11/19 00:53:41;;;;;;;;;;;-1.50;93.20;;;;;;5012076;28;1360;-68
2022/11/19 00:56:10;;;;;;;;;;;-1.50;93.20;;;;;;5012962;28;1029;-69
2022/11/19 00:58:38;;;;;;;;;;;-1.50;93.20;;;;;;5012584;28;1010;-68
2022/11/19 01:01:06;;;;;;;;;;;-1.50;93.10;;;;;;5013006;28;1706;-68
2022/11/19 01:03:35;;;;;;;;;;;-1.60;93.10;;;;;;5012842;28;1410;-68
2022/11/19 01:06:03;;;;;;;;;;;-1.60;93.20;;;;;;5013038;28;1001;-70
2022/11/19 01:08:31;;;;;;;;;;;-1.60;93.10;;;;;;5012726;28;1102;-69
2022/11/19 01:11:03;;;;;;;;;;;-1.60;93.10;;;;;;5013166;28;1970;-70
2022/11/19 01:13:35;;;;;;;;;;;-1.60;93.00;;;;;;5013134;28;1393;-68
2022/11/19 01:16:04;;;;;;;;;;;-1.60;93.10;;;;;;5013453;28;1511;-69
2022/11/19 01:18:32;;;;;;;;;;;-1.70;93.10;;;;;;5011766;28;1026;-70
2022/11/19 01:21:00;;;;;;;;;;;-1.70;93.10;;;;;;5013218;28;1096;-70
2022/11/19 01:23:27;;;;;;;;;;;-1.70;93.10;;;;;;5011761;28;1672;-70
2022/11/19 01:25:55;;;;;;;;;;;-1.60;93.20;;;;;;5010421;28;1591;-69
2022/11/19 01:28:23;;;;;;;;;;;-1.60;93.20;;;;;;5012840;28;1085;-70
2022/11/19 01:30:52;;;;;;;;;;;-1.70;93.10;;;;;;5012811;28;1997;-69
2022/11/19 01:33:21;;;;;;;;;;;-1.60;93.20;;;;;;5018737;28;1273;-69
2022/11/19 01:35:55;;;;;;;;;;;-1.80;93.10;;;;;;5031200;28;1152;-69
2022/11/19 01:38:23;;;;;;;;;;;-1.80;93.10;;;;;;5014998;28;1664;-71
2022/11/19 01:40:51;;;;;;;;;;;-1.80;93.10;;;;;;5016076;28;1408;-69
2022/11/19 01:43:18;;;;;;;;;;;-1.80;93.10;;;;;;5016277;28;1289;-70
2022/11/19 01:45:47;;;;;;;;;;;-1.80;93.30;;;;;;5015040;28;1095;-69
2022/11/19 01:48:18;;;;;;;;;;;-1.90;93.30;;;;;;5015996;28;1097;-68
2022/11/19 01:50:48;;;;;;;;;;;-1.90;93.30;;;;;;5014842;28;1906;-69
2022/11/19 01:53:18;;;;;;;;;;;-1.90;93.30;;;;;;5016421;28;1456;-72
2022/11/19 01:55:46;;;;;;;;;;;-1.90;93.30;;;;;;5016391;28;1014;-69
2022/11/19 01:58:16;;;;;;;;;;;-2.00;93.20;;;;;;5016128;28;1781;-70
2022/11/19 02:00:44;;;;;;;;;;;-2.00;93.20;;;;;;5015369;28;2002;-70
2022/11/19 02:03:12;;;;;;;;;;;-2.00;93.20;;;;;;5015693;28;1384;-70
2022/11/19 02:05:42;;;;;;;;;;;-2.00;93.40;;;;;;5015815;28;1963;-70
2022/11/19 02:08:10;;;;;;;;;;;-2.00;93.30;;;;;;5015610;28;1004;-69
2022/11/19 02:10:41;;;;;;;;;;;-2.00;93.10;;;;;;5014197;28;1914;-70
2022/11/19 02:18:27;;;;;;;;;;;-2.00;93.20;;;;;;5265431;22;1814;-85
2022/11/19 02:21:08;;;;;;;;;;;-2.10;93.20;;;;;;5005118;28;1510;-86
2022/11/19 02:27:42;;;;;;;;;;;-2.00;93.30;;;;;;4994537;28;1394;-88
2022/11/19 02:30:12;;;;;;;;;;;-2.20;93.30;;;;;;5000963;28;1993;-88
2022/11/19 02:32:45;;;;;;;;;;;-2.20;93.30;;;;;;5010555;28;1706;-86
2022/11/19 02:35:16;;;;;;;;;;;-2.20;93.30;;;;;;5001530;28;1584;-87
2022/11/19 02:37:48;;;;;;;;;;;-2.20;93.00;;;;;;5002197;28;961;-86
2022/11/19 02:40:26;;;;;;;;;;;-2.20;93.20;;;;;;5005445;28;1321;-87
2022/11/19 02:43:03;;;;;;;;;;;-2.20;93.30;;;;;;5014179;28;1370;-86
2022/11/19 02:45:43;;;;;;;;;;;-2.30;93.20;;;;;;5009692;28;1547;-86
2022/11/19 02:48:14;;;;;;;;;;;-2.30;92.50;;;;;;5029728;28;1390;-87
2022/11/19 02:50:51;;;;;;;;;;;-2.00;92.80;;;;;;5013845;28;2001;-87
2022/11/19 02:53:26;;;;;;;;;;;-2.20;93.00;;;;;;5014886;28;1582;-87
2022/11/19 02:56:12;;;;;;;;;;;-2.20;92.20;;;;;;4999890;28;1377;-87
2022/11/19 03:04:31;;;;;;;;;;;-2.30;92.90;;;;;;5008664;28;1257;-85
2022/11/19 03:07:02;;;;;;;;;;;-2.20;93.00;;;;;;5011528;28;1532;-87
2022/11/19 03:09:31;;;;;;;;;;;-2.30;93.00;;;;;;5011286;28;1270;-87
2022/11/19 03:12:04;;;;;;;;;;;-2.30;92.90;;;;;;5010209;28;1979;-86
2022/11/19 03:17:24;;;;;;;;;;;-2.20;93.00;;;;;;5009642;28;1332;-87
2022/11/19 03:19:56;;;;;;;;;;;-2.40;92.90;;;;;;5000652;28;1555;-87
2022/11/19 03:22:26;;;;;;;;;;;-2.30;92.90;;;;;;5000548;28;1590;-87
2022/11/19 03:24:58;;;;;;;;;;;-2.30;92.80;;;;;;5002219;28;961;-86
2022/11/19 03:27:30;;;;;;;;;;;-2.30;93.10;;;;;;5001913;28;1685;-87
2022/11/19 03:30:03;;;;;;;;;;;-2.30;92.60;;;;;;5004980;28;1481;-87
2022/11/19 03:32:37;;;;;;;;;;;-2.00;92.50;;;;;;5000053;28;1914;-87
2022/11/19 03:35:08;;;;;;;;;;;-2.10;93.00;;;;;;4999837;28;943;-87
2022/11/19 03:37:38;;;;;;;;;;;-2.30;92.90;;;;;;5014164;28;1573;-86
2022/11/19 03:40:08;;;;;;;;;;;-2.30;92.70;;;;;;5015770;28;1540;-88
2022/11/19 03:42:37;;;;;;;;;;;-2.30;92.50;;;;;;5009495;28;1393;-85
2022/11/19 03:45:08;;;;;;;;;;;-2.40;92.70;;;;;;5011187;28;1560;-87
2022/11/19 03:47:40;;;;;;;;;;;-2.30;92.90;;;;;;4999981;28;1462;-86
2022/11/19 03:50:15;;;;;;;;;;;-2.30;93.00;;;;;;4999841;28;1361;-87
2022/11/19 03:52:43;;;;;;;;;;;-2.40;93.10;;;;;;4999790;28;1988;-87
2022/11/19 03:55:11;;;;;;;;;;;-2.30;92.40;;;;;;5015496;28;1583;-85
2022/11/19 03:57:39;;;;;;;;;;;-2.40;92.70;;;;;;5012343;28;1085;-89
2022/11/19 04:00:08;;;;;;;;;;;-2.40;92.80;;;;;;5001179;28;1537;-88
2022/11/19 04:02:36;;;;;;;;;;;-2.40;92.90;;;;;;5000612;28;1558;-87
2022/11/19 04:05:06;;;;;;;;;;;-2.40;92.20;;;;;;5007985;28;1141;-88
2022/11/19 04:07:34;;;;;;;;;;;-2.30;92.50;;;;;;5018084;28;1088;-88
2022/11/19 04:10:02;;;;;;;;;;;-2.30;92.20;;;;;;5019357;28;1264;-86
2022/11/19 04:12:30;;;;;;;;;;;-2.40;91.90;;;;;;5020167;28;1879;-87
2022/11/19 04:14:59;;;;;;;;;;;-2.40;92.30;;;;;;5020388;28;1511;-88
2022/11/19 04:17:27;;;;;;;;;;;-2.40;92.10;;;;;;5019799;28;1507;-85
2022/11/19 04:19:54;;;;;;;;;;;-2.40;92.00;;;;;;5020084;28;1214;-86
2022/11/19 04:22:24;;;;;;;;;;;-2.30;92.40;;;;;;5018468;28;1728;-86
2022/11/19 04:24:51;;;;;;;;;;;-2.10;92.90;;;;;;5019901;28;1564;-86
2022/11/19 04:27:19;;;;;;;;;;;-2.10;92.60;;;;;;5019689;28;1535;-85
2022/11/19 04:29:49;;;;;;;;;;;-2.30;91.90;;;;;;5020174;28;1222;-87
2022/11/19 04:32:19;;;;;;;;;;;-2.30;91.80;;;;;;5019982;28;1972;-86
2022/11/19 04:34:53;;;;;;;;;;;-2.30;91.70;;;;;;5019524;28;1554;-86
2022/11/19 04:37:29;;;;;;;;;;;-2.30;92.30;;;;;;5019618;28;1481;-86
2022/11/19 04:40:06;;;;;;;;;;;-2.10;92.40;;;;;;5022232;28;1563;-86
2022/11/19 04:42:37;;;;;;;;;;;-1.90;91.90;;;;;;5031857;28;1528;-86
2022/11/19 04:45:09;;;;;;;;;;;-2.10;91.50;;;;;;5039486;28;1647;-83
2022/11/19 04:47:39;;;;;;;;;;;-2.10;92.40;;;;;;5033197;28;1587;-85
2022/11/19 04:50:07;;;;;;;;;;;-2.30;92.10;;;;;;5035319;28;1410;-87
2022/11/19 04:52:36;;;;;;;;;;;-2.50;93.00;;;;;;5028496;28;1961;-86
2022/11/19 04:55:08;;;;;;;;;;;-2.60;93.50;;;;;;5019878;28;1588;-87
2022/11/19 04:57:36;;;;;;;;;;;-2.60;93.60;;;;;;5023506;28;1140;-85
2022/11/19 05:00:04;;;;;;;;;;;-2.30;93.70;;;;;;5032358;28;1340;-83
2022/11/19 05:02:32;;;;;;;;;;;-2.50;94.10;;;;;;5031374;28;1556;-85
2022/11/19 05:05:00;;;;;;;;;;;-2.80;93.30;;;;;;5033891;28;967;-84
2022/11/19 05:07:27;;;;;;;;;;;-2.40;93.90;;;;;;5034453;28;964;-83
2022/11/19 05:09:56;;;;;;;;;;;-2.40;93.70;;;;;;5028360;28;1244;-84
2022/11/19 05:12:24;;;;;;;;;;;-2.40;94.10;;;;;;5027368;28;1978;-84
2022/11/19 05:14:52;;;;;;;;;;;-2.30;93.70;;;;;;5031655;28;1006;-83
2022/11/19 05:17:20;;;;;;;;;;;-2.50;93.40;;;;;;5024419;28;1108;-84
2022/11/19 05:19:48;;;;;;;;;;;-2.40;94.00;;;;;;5018188;28;1354;-84
2022/11/19 05:22:15;;;;;;;;;;;-2.60;93.90;;;;;;5016803;28;1067;-83
2022/11/19 05:24:43;;;;;;;;;;;-2.60;93.80;;;;;;5005709;28;1021;-83
2022/11/19 05:27:12;;;;;;;;;;;-2.30;94.10;;;;;;5012222;28;1515;-84
2022/11/19 05:29:40;;;;;;;;;;;-2.50;94.30;;;;;;5010680;28;1506;-84
2022/11/19 05:32:08;;;;;;;;;;;-2.50;93.90;;;;;;5016846;28;1902;-84
2022/11/19 05:34:36;;;;;;;;;;;-2.30;93.90;;;;;;5014459;28;1421;-83
2022/11/19 05:37:08;;;;;;;;;;;-2.40;94.00;;;;;;5018020;28;1344;-83
2022/11/19 05:39:45;;;;;;;;;;;-2.10;94.10;;;;;;5008259;28;1712;-86
2022/11/19 05:42:43;;;;;;;;;;;-2.10;93.10;;;;;;5015228;28;1365;-84
2022/11/19 05:45:25;;;;;;;;;;;-1.90;93.40;;;;;;5003751;28;1473;-84
2022/11/19 05:51:05;;;;;;;;;;;-1.50;93.40;;;;;;5006632;28;1409;-84
2022/11/19 05:54:04;;;;;;;;;;;-1.60;92.40;;;;;;5012561;28;1902;-84
2022/11/19 05:56:52;;;;;;;;;;;-1.30;92.70;;;;;;4973571;28;1280;-85
2022/11/19 05:59:37;;;;;;;;;;;-1.40;91.60;;;;;;4972210;28;1552;-85
2022/11/19 06:02:10;;;;;;;;;;;-1.10;93.10;;;;;;4975187;28;1264;-85
2022/11/19 06:05:02;;;;;;;;;;;-1.60;92.30;;;;;;4975553;28;1725;-85
2022/11/19 06:08:10;;;;;;;;;;;-1.30;92.90;;;;;;4974939;28;1437;-85
2022/11/19 06:10:39;;;;;;;;;;;-1.10;92.50;;;;;;4968928;28;1530;-86
2022/11/19 06:13:24;;;;;;;;;;;-1.30;92.20;;;;;;4979589;28;1958;-84
2022/11/19 06:15:53;;;;;;;;;;;-1.20;92.40;;;;;;4994782;28;972;-85
2022/11/19 06:18:24;;;;;;;;;;;-1.10;93.20;;;;;;5014642;28;1308;-85
2022/11/19 06:20:52;;;;;;;;;;;-1.00;92.70;;;;;;5003774;28;1001;-85
2022/11/19 06:23:21;;;;;;;;;;;-0.80;92.30;;;;;;5004506;28;1056;-86
2022/11/19 06:25:53;;;;;;;;;;;-0.90;92.60;;;;;;5007915;28;1445;-85
2022/11/19 06:32:16;;;;;;;;;;;;;;;;;;;;;
2022/11/19 06:38:51;;;;;;;;;;;-1.20;92.70;;;;;;4979437;28;1406;-85
2022/11/19 06:41:29;;;;;;;;;;;-0.70;92.90;;;;;;4968596;28;1390;-84
2022/11/19 06:44:02;;;;;;;;;;;-1.10;92.80;;;;;;4964018;28;1353;-85
2022/11/19 06:49:27;;;;;;;;;;;-1.10;91.30;;;;;;4921232;29;1406;-85
2022/11/19 06:52:25;;;;;;;;;;;-1.30;92.20;;;;;;4931291;29;1414;-85
2022/11/19 06:55:07;;;;;;;;;;;-1.70;92.70;;;;;;4967098;28;1660;-86
2022/11/19 06:57:46;;;;;;;;;;;-1.20;91.90;;;;;;4973168;28;1489;-87
2022/11/19 07:00:47;;;;;;;;;;;-1.40;92.80;;;;;;4969309;28;1587;-87
2022/11/19 07:06:48;;;;;;;;;;;-1.40;93.10;;;;;;4928547;29;1064;-84
2022/11/19 07:09:16;;;;;;;;;;;-1.40;92.80;;;;;;4970212;28;1549;-85
2022/11/19 07:11:44;;;;;;;;;;;-1.40;92.90;;;;;;4972600;28;1917;-83
2022/11/19 07:14:14;;;;;;;;;;;-1.40;93.00;;;;;;4976875;28;1903;-84
2022/11/19 07:16:41;;;;;;;;;;;-1.10;93.40;;;;;;5002792;28;994;-84
2022/11/19 07:19:09;;;;;;;;;;;-1.40;93.00;;;;;;5006545;28;1375;-83
2022/11/19 07:24:23;;;;;;;;;;;-1.30;92.50;;;;;;5027716;28;1516;-86
2022/11/19 07:26:51;;;;;;;;;;;-1.30;93.30;;;;;;5021341;28;1450;-85
2022/11/19 07:29:20;;;;;;;;;;;-1.30;93.00;;;;;;5014106;28;1585;-84
2022/11/19 07:31:49;;;;;;;;;;;-0.90;93.50;;;;;;5012448;28;1567;-83
2022/11/19 07:34:22;;;;;;;;;;;-1.10;92.70;;;;;;5009388;28;1996;-83
2022/11/19 07:36:51;;;;;;;;;;;-1.10;94.00;;;;;;5017643;28;1459;-84
2022/11/19 07:39:19;;;;;;;;;;;-0.80;93.10;;;;;;5020952;28;1285;-84
2022/11/19 07:48:30;;;;;;;;;;;-0.70;93.40;;;;;;5008506;28;1312;-86
2022/11/19 07:51:12;;;;;;;;;;;-0.50;92.70;;;;;;5012160;28;1428;-88
2022/11/19 07:53:59;;;;;;;;;;;;;;;;;;;;;
2022/11/19 07:56:37;;;;;;;;;;;-0.40;91.60;;;;;;5008305;28;1000;-87
2022/11/19 08:02:56;;;;;;;;;;;0.00;92.30;;;;;;5013311;28;1553;-88
2022/11/19 08:19:31;;;;;;;;;;;0.10;91.80;;;;;;4925045;29;1365;-86
2022/11/19 08:29:18;;;;;;;;;;;-0.10;91.60;;;;;;4980923;22;1898;-68
2022/11/19 08:31:47;;;;;;;;;;;0.30;91.70;;;;;;5013899;28;2499;-68
2022/11/19 08:34:15;;;;;;;;;;;0.60;91.80;;;;;;5011852;28;1982;-68
2022/11/19 08:36:42;;;;;;;;;;;0.30;91.80;;;;;;5013235;28;1103;-68
2022/11/19 08:39:10;;;;;;;;;;;0.50;91.60;;;;;;5013403;28;1026;-68
2022/11/19 08:44:24;;;;;;;;;;;0.50;91.80;;;;;;5012274;28;1676;-69
2022/11/19 08:46:52;;;;;;;;;;;0.50;91.80;;;;;;5012841;28;1076;-69
2022/11/19 08:49:19;;;;;;;;;;;0.50;91.90;;;;;;5015951;28;1021;-68
2022/11/19 08:51:47;;;;;;;;;;;0.60;91.80;;;;;;5012897;28;1330;-68
2022/11/19 08:54:15;;;;;;;;;;;0.70;92.00;;;;;;5011837;28;1910;-67
2022/11/19 08:56:42;;;;;;;;;;;0.40;92.20;;;;;;5013401;28;1089;-66
2022/11/19 08:59:10;;;;;;;;;;;0.20;92.80;;;;;;5013058;28;1148;-66
2022/11/19 09:01:39;;;;;;;;;;;0.20;93.10;;;;;;5012521;28;1335;-67
2022/11/19 09:04:07;;;;;;;;;;;0.40;93.40;;;;;;5013112;28;1941;-67
2022/11/19 09:06:35;;;;;;;;;;;0.40;92.80;;;;;;5012464;28;1864;-67
2022/11/19 09:09:02;;;;;;;;;;;0.30;93.30;;;;;;5013642;28;1061;-67
2022/11/19 09:11:30;;;;;;;;;;;0.60;93.80;;;;;;5010014;28;1887;-74
2022/11/19 09:13:59;;;;;;;;;;;0.90;93.20;;;;;;5011105;28;1989;-66
2022/11/19 09:16:26;;;;;;;;;;;0.80;94.50;;;;;;5010696;28;1104;-65
2022/11/19 09:18:55;;;;;;;;;;;0.80;93.70;;;;;;5010438;28;1284;-65
2022/11/19 09:21:23;;;;;;;;;;;0.80;93.20;;;;;;5010902;28;1307;-65
2022/11/19 09:23:50;;;;;;;;;;;0.70;93.80;;;;;;5009323;28;1739;-69
2022/11/19 09:26:18;;;;;;;;;;;0.80;93.60;;;;;;5011408;28;1119;-70
2022/11/19 09:28:46;;;;;;;;;;;0.90;93.60;;;;;;5013263;28;1236;-70
2022/11/19 09:31:15;;;;;;;;;;;0.80;94.00;;;;;;5010846;28;1094;-70
2022/11/19 09:33:44;;;;;;;;;;;1.20;94.00;;;;;;5007642;28;1902;-69
2022/11/19 09:36:14;;;;;;;;;;;1.00;93.70;;;;;;5010562;28;971;-71
2022/11/19 09:38:42;;;;;;;;;;;0.90;94.00;;;;;;5009643;28;1467;-69
2022/11/19 09:41:15;;;;;;;;;;;0.90;93.90;;;;;;5010409;28;1600;-70
2022/11/19 09:43:48;;;;;;;;;;;1.10;94.20;;;;;;5012029;28;1652;-70
2022/11/19 09:46:21;;;;;;;;;;;1.10;94.20;;;;;;5012084;28;1913;-69
2022/11/19 09:48:50;;;;;;;;;;;1.10;94.10;;;;;;5011955;28;1676;-69
2022/11/19 09:51:21;;;;;;;;;;;1.20;94.20;;;;;;5011243;28;1664;-69
2022/11/19 09:53:51;;;;;;;;;;;1.40;94.00;;;;;;5011956;28;1894;-69
2022/11/19 09:56:23;;;;;;;;;;;1.40;94.10;;;;;;5012111;28;1029;-69
2022/11/19 09:58:51;;;;;;;;;;;1.40;94.30;;;;;;5013324;28;1738;-69
2022/11/19 10:01:19;;;;;;;;;;;1.40;94.30;;;;;;5015742;28;1300;-68
2022/11/19 10:03:48;;;;;;;;;;;1.40;94.30;;;;;;5016250;28;1088;-69
2022/11/19 10:06:23;;;;;;;;;;;1.60;94.20;;;;;;5015132;28;1663;-70
2022/11/19 10:08:57;;;;;;;;;;;1.60;94.40;;;;;;5013255;28;1084;-69
2022/11/19 10:11:32;;;;;;;;;;;1.60;94.30;;;;;;5011810;28;1476;-69
2022/11/19 10:14:04;;;;;;;;;;;1.90;93.80;;;;;;5027503;28;1887;-70
2022/11/19 10:16:40;;;;;;;;;;;2.00;93.70;;;;;;5019591;28;1151;-70
2022/11/19 10:19:15;;;;;;;;;;;2.10;93.50;;;;;;5015011;28;1100;-70
2022/11/19 10:21:50;;;;;;;;;;;2.20;93.40;;;;;;5013746;28;1292;-70
2022/11/19 10:24:22;;;;;;;;;;;2.40;93.30;;;;;;5014745;28;1147;-70
2022/11/19 10:26:51;;;;;;;;;;;2.50;92.90;;;;;;5012017;28;1143;-68
2022/11/19 10:29:20;;;;;;;;;;;2.40;92.90;;;;;;5011941;28;1336;-70
2022/11/19 10:31:49;;;;;;;;;;;2.50;93.00;;;;;;5013039;28;1302;-69
2022/11/19 10:34:19;;;;;;;;;;;2.50;93.10;;;;;;5012109;28;1993;-69
2022/11/19 10:36:50;;;;;;;;;;;2.60;93.00;;;;;;5013440;28;1167;-68
2022/11/19 10:39:19;;;;;;;;;;;2.60;92.90;;;;;;5012968;28;1157;-69
2022/11/19 10:41:49;;;;;;;;;;;2.60;92.80;;;;;;5013003;28;1315;-69
2022/11/19 10:47:03;;;;;;;;;;;2.70;92.80;;;;;;5014535;28;1524;-69
2022/11/19 10:49:32;;;;;;;;;;;2.80;92.70;;;;;;5015084;28;1073;-69
2022/11/19 10:52:01;;;;;;;;;;;2.80;92.70;;;;;;5014696;28;1393;-70
2022/11/19 10:54:30;;;;;;;;;;;2.90;92.60;;;;;;5015346;28;1938;-69
2022/11/19 10:56:57;;;;;;;;;;;2.80;92.60;;;;;;5014549;28;1045;-71
2022/11/19 10:59:27;;;;;;;;;;;3.00;92.70;;;;;;5014695;28;1586;-71
2022/11/19 11:01:56;;;;;;;;;;;2.90;92.80;;;;;;5015073;28;1387;-71
2022/11/19 11:04:25;;;;;;;;;;;3.00;92.60;;;;;;5014852;28;1073;-69
2022/11/19 11:06:53;;;;;;;;;;;3.00;92.60;;;;;;5014483;28;1585;-70
2022/11/19 11:09:33;;;;;;;;;;;3.20;92.70;;;;;;5015006;28;1041;-69
2022/11/19 11:14:54;;;;;;;;;;;3.20;93.00;;;;;;5015079;28;1891;-68
2022/11/19 11:17:23;;;;;;;;;;;3.10;92.60;;;;;;5014943;28;1137;-68
2022/11/19 11:20:01;;;;;;;;;;;3.20;92.80;;;;;;5014229;28;1687;-68
2022/11/19 11:22:29;;;;;;;;;;;3.30;92.80;;;;;;5014235;28;1486;-68
2022/11/19 11:24:59;;;;;;;;;;;3.50;92.70;;;;;;5013014;28;1171;-69
2022/11/19 11:27:34;;;;;;;;;;;3.60;92.50;;;;;;5014456;28;950;-68
2022/11/19 11:30:06;;;;;;;;;;;3.80;92.00;;;;;;5012859;28;1640;-68
2022/11/19 11:32:34;;;;;;;;;;;3.70;91.60;;;;;;5013729;28;1668;-68
2022/11/19 11:35:01;;;;;;;;;;;3.80;91.80;;;;;;5014806;28;1907;-68
2022/11/19 11:37:35;;;;;;;;;;;4.00;91.50;;;;;;5014092;28;1073;-68
2022/11/19 11:40:05;;;;;;;;;;;4.10;91.10;;;;;;5013968;28;1075;-69
2022/11/19 11:42:33;;;;;;;;;;;4.10;91.20;;;;;;5011856;28;1656;-70
2022/11/19 11:45:01;;;;;;;;;;;4.10;91.10;;;;;;5014541;28;1006;-68
2022/11/19 11:47:30;;;;;;;;;;;4.20;90.80;;;;;;5013847;28;1068;-69
2022/11/19 11:50:03;;;;;;;;;;;4.30;90.80;;;;;;5013643;28;1014;-69
2022/11/19 11:52:33;;;;;;;;;;;4.30;90.10;;;;;;5013456;28;2118;-69
2022/11/19 11:55:02;;;;;;;;;;;4.20;90.20;;;;;;5013789;28;1911;-68
2022/11/19 11:57:32;;;;;;;;;;;4.20;90.20;;;;;;5012692;28;1521;-69
2022/11/19 12:00:01;;;;;;;;;;;4.30;90.10;;;;;;5013332;28;1114;-68
2022/11/19 12:02:30;;;;;;;;;;;4.30;89.90;;;;;;5013363;28;1195;-68
2022/11/19 12:04:59;;;;;;;;;;;4.10;89.90;;;;;;5013823;28;1631;-71
2022/11/19 12:07:36;;;;;;;;;;;4.00;89.70;;;;;;5013526;28;1013;-73
2022/11/19 12:10:11;;;;;;;;;;;4.30;89.90;;;;;;5011580;28;1352;-71
2022/11/19 12:12:42;;;;;;;;;;;4.40;88.90;;;;;;5013264;28;1355;-70
2022/11/19 12:15:15;;;;;;;;;;;4.50;88.30;;;;;;5013006;28;1910;-72
2022/11/19 12:17:46;;;;;;;;;;;4.50;87.90;;;;;;5012785;28;1145;-71
2022/11/19 12:20:21;;;;;;;;;;;4.50;87.90;;;;;;5013293;28;1531;-71
2022/11/19 12:22:55;;;;;;;;;;;4.60;87.30;;;;;;5014590;28;1395;-70
2022/11/19 12:25:26;;;;;;;;;;;4.60;86.90;;;;;;5031967;28;1001;-70
2022/11/19 12:28:03;;;;;;;;;;;4.40;87.30;;;;;;5018045;28;1156;-70
2022/11/19 12:30:33;;;;;;;;;;;4.30;87.90;;;;;;5013446;28;1056;-70
2022/11/19 12:33:13;;;;;;;;;;;4.50;87.20;;;;;;5015093;28;1398;-71
2022/11/19 12:35:48;;;;;;;;;;;4.70;87.10;;;;;;5013476;28;1903;-71
2022/11/19 12:38:23;;;;;;;;;;;4.70;87.20;;;;;;5012925;28;1296;-72
2022/11/19 12:40:54;;;;;;;;;;;4.60;86.20;;;;;;5012502;28;1721;-70
2022/11/19 12:43:38;;;;;;;;;;;4.40;86.90;;;;;;5013024;28;1348;-71
2022/11/19 12:46:11;;;;;;;;;;;4.60;86.70;;;;;;5013349;28;1499;-71
2022/11/19 12:48:50;;;;;;;;;;;4.50;86.10;;;;;;5012619;28;1017;-71
2022/11/19 12:51:25;;;;;;;;;;;4.40;86.30;;;;;;5012804;28;1353;-72
2022/11/19 12:54:05;;;;;;;;;;;4.40;86.00;;;;;;5012573;28;1081;-71
2022/11/19 12:56:38;;;;;;;;;;;4.50;86.40;;;;;;5012991;28;1910;-72
2022/11/19 12:59:12;;;;;;;;;;;4.70;86.00;;;;;;5012794;28;1010;-71
2022/11/19 13:01:42;;;;;;;;;;;4.80;85.90;;;;;;5009942;28;1591;-69
2022/11/19 13:04:12;;;;;;;;;;;4.80;85.30;;;;;;5008898;28;1490;-71
2022/11/19 13:06:42;;;;;;;;;;;4.80;85.80;;;;;;5012218;28;1057;-69
2022/11/19 13:09:14;;;;;;;;;;;5.00;86.00;;;;;;5011099;28;1136;-69
2022/11/19 13:11:43;;;;;;;;;;;5.00;85.70;;;;;;5011770;28;1582;-69
2022/11/19 13:14:16;;;;;;;;;;;5.10;85.60;;;;;;5012140;28;1022;-71
2022/11/19 13:16:44;;;;;;;;;;;5.10;85.40;;;;;;5012611;28;1911;-69
2022/11/19 13:19:18;;;;;;;;;;;5.10;84.60;;;;;;5011914;28;1076;-71
2022/11/19 13:21:50;;;;;;;;;;;5.00;84.60;;;;;;5012185;28;1735;-70
2022/11/19 13:24:24;;;;;;;;;;;5.00;84.40;;;;;;5012772;28;1006;-68
2022/11/19 13:26:52;;;;;;;;;;;5.00;84.20;;;;;;5011395;28;1468;-69
2022/11/19 13:29:28;;;;;;;;;;;4.80;84.10;;;;;;5012833;28;1164;-68
2022/11/19 13:31:57;;;;;;;;;;;4.80;84.70;;;;;;5012202;28;1358;-68
2022/11/19 13:34:26;;;;;;;;;;;4.90;84.40;;;;;;5014313;28;1568;-67
2022/11/19 13:37:00;;;;;;;;;;;5.10;83.70;;;;;;5016029;28;1993;-67
2022/11/19 13:39:31;;;;;;;;;;;4.90;84.20;;;;;;5016045;28;1110;-68
2022/11/19 13:44:47;;;;;;;;;;;4.50;84.90;;;;;;5016728;28;1006;-70
2022/11/19 13:47:18;;;;;;;;;;;4.60;85.70;;;;;;5014230;28;1613;-72
2022/11/19 13:49:49;;;;;;;;;;;4.70;85.00;;;;;;5015574;28;1171;-71
2022/11/19 13:52:20;;;;;;;;;;;4.90;84.50;;;;;;5016989;28;1378;-71
2022/11/19 13:54:48;;;;;;;;;;;5.00;84.80;;;;;;5014083;28;1128;-71
2022/11/19 13:57:26;;;;;;;;;;;5.00;85.30;;;;;;5015853;28;1927;-71
2022/11/19 13:59:58;;;;;;;;;;;4.90;85.10;;;;;;5015035;28;1461;-70
2022/11/19 14:02:37;;;;;;;;;;;4.90;85.40;;;;;;5015745;28;1369;-71
2022/11/19 14:05:20;;;;;;;;;;;4.50;85.10;;;;;;5018706;28;999;-70
2022/11/19 14:07:56;;;;;;;;;;;4.50;86.20;;;;;;4998948;28;1254;-71
2022/11/19 14:10:28;;;;;;;;;;;4.70;85.60;;;;;;5015242;28;1439;-72
2022/11/19 14:13:13;;;;;;;;;;;4.70;85.50;;;;;;5015069;28;1312;-71
2022/11/19 14:27:40;;;;;;;;;;;4.20;87.30;;;;;;5015734;28;1168;-71
2022/11/19 14:30:10;;;;;;;;;;;4.30;87.80;;;;;;5016073;28;1025;-70
2022/11/19 14:32:44;;;;;;;;;;;4.40;87.60;;;;;;5015460;28;1656;-70
2022/11/19 14:35:35;;;;;;;;;;;4.40;87.90;;;;;;5020803;28;1375;-71
2022/11/19 14:38:35;;;;;;;;;;;4.50;88.00;;;;;;5016026;28;1989;-71
2022/11/19 14:41:18;;;;;;;;;;;4.60;88.00;;;;;;5016070;28;1010;-70
2022/11/19 14:46:34;;;;;;;;;;;4.50;88.20;;;;;;5013970;28;2391;-71
2022/11/19 14:49:05;;;;;;;;;;;4.40;89.50;;;;;;5014003;28;1957;-70
2022/11/19 14:51:35;;;;;;;;;;;4.40;89.50;;;;;;5015348;28;1249;-70
2022/11/19 14:54:07;;;;;;;;;;;4.30;89.50;;;;;;5014414;28;1045;-70
2022/11/19 14:56:36;;;;;;;;;;;4.30;90.00;;;;;;5015060;28;1914;-70
2022/11/19 14:59:16;;;;;;;;;;;4.20;90.00;;;;;;5014541;28;982;-70
2022/11/19 15:01:53;;;;;;;;;;;4.30;90.20;;;;;;5014395;28;1889;-70
2022/11/19 15:04:23;;;;;;;;;;;4.10;90.40;;;;;;5015365;28;1813;-70
2022/11/19 15:06:52;;;;;;;;;;;4.10;90.40;;;;;;5013259;28;1090;-70
2022/11/19 15:09:38;;;;;;;;;;;4.10;90.50;;;;;;5014956;28;1234;-70
2022/11/19 15:12:06;;;;;;;;;;;4.10;90.90;;;;;;5014102;28;1326;-70
2022/11/19 15:14:37;;;;;;;;;;;4.20;90.90;;;;;;5015501;28;1559;-70
2022/11/19 15:17:07;;;;;;;;;;;4.10;90.80;;;;;;5014293;28;1998;-72
2022/11/19 15:19:39;;;;;;;;;;;4.10;90.60;;;;;;5014698;28;1105;-71
2022/11/19 15:22:21;;;;;;;;;;;4.00;90.60;;;;;;5014431;28;1327;-70
2022/11/19 15:24:54;;;;;;;;;;;4.10;90.90;;;;;;5013560;28;1401;-69
2022/11/19 15:27:28;;;;;;;;;;;4.10;91.60;;;;;;5013427;28;1158;-68
2022/11/19 15:30:03;;;;;;;;;;;3.80;90.60;;;;;;5013886;28;1098;-70
2022/11/19 15:32:37;;;;;;;;;;;3.80;91.10;;;;;;5012880;28;2044;-70
2022/11/19 15:35:30;;;;;;;;;;;3.70;91.20;;;;;;5011020;28;1100;-72
2022/11/19 15:38:02;;;;;;;;;;;3.70;91.40;;;;;;5011496;28;1906;-72
2022/11/19 15:40:32;;;;;;;;;;;3.70;91.40;;;;;;5012538;28;1231;-72
2022/11/19 15:43:06;;;;;;;;;;;3.70;91.60;;;;;;5013178;28;1316;-69
2022/11/19 15:45:43;;;;;;;;;;;3.70;91.80;;;;;;5013682;28;997;-70
2022/11/19 15:48:13;;;;;;;;;;;3.60;91.80;;;;;;5013279;28;1758;-70
2022/11/19 15:50:43;;;;;;;;;;;3.60;92.00;;;;;;5013456;28;1031;-71
2022/11/19 15:53:15;;;;;;;;;;;3.50;92.00;;;;;;5013873;28;1283;-70
2022/11/19 15:55:48;;;;;;;;;;;3.50;92.20;;;;;;5014200;28;1020;-70
2022/11/19 15:58:18;;;;;;;;;;;3.50;92.20;;;;;;5013268;28;2002;-70
2022/11/19 16:00:47;;;;;;;;;;;3.40;92.30;;;;;;5012505;28;1703;-70
2022/11/19 16:03:15;;;;;;;;;;;3.50;92.20;;;;;;5014141;28;1374;-72
2022/11/19 16:05:47;;;;;;;;;;;3.50;92.20;;;;;;5014257;28;1123;-69
2022/11/19 16:08:16;;;;;;;;;;;3.50;92.50;;;;;;5012051;28;1655;-71
2022/11/19 16:10:46;;;;;;;;;;;3.50;92.40;;;;;;5013844;28;1160;-70
2022/11/19 16:18:59;;;;;;;;;;;3.80;92.00;;;;;;5011810;28;1975;-70
2022/11/19 16:21:30;;;;;;;;;;;3.60;92.20;;;;;;5012616;28;1354;-70
2022/11/19 16:26:44;;;;;;;;;;;3.80;92.20;;;;;;5012589;28;1115;-70
2022/11/19 16:29:15;;;;;;;;;;;3.70;92.20;;;;;;5012884;28;1271;-70
2022/11/19 16:31:43;;;;;;;;;;;3.70;92.40;;;;;;5013749;28;1355;-70
2022/11/19 16:34:16;;;;;;;;;;;3.70;92.30;;;;;;5013398;28;1144;-71
2022/11/19 16:36:47;;;;;;;;;;;3.70;92.30;;;;;;5013695;28;1173;-71
2022/11/19 16:39:18;;;;;;;;;;;3.70;92.20;;;;;;5013380;28;1958;-71
2022/11/19 16:44:33;;;;;;;;;;;3.80;92.00;;;;;;5022688;28;1675;-71
2022/11/19 16:47:03;;;;;;;;;;;3.80;92.00;;;;;;5030808;28;1612;-70
2022/11/19 16:49:32;;;;;;;;;;;3.70;92.20;;;;;;5013250;28;1281;-70
2022/11/19 16:52:01;;;;;;;;;;;3.70;92.20;;;;;;5014576;28;1300;-71